Toivola, Minnesota
Current Conditions -  °F | °C
As of 11:53 PM on Thursday 27 Nov 2014 (Local Time) from KHIB Reporting Station
Broken Clouds Broken Clouds  
Wind Chill:   Ceiling: 9000
Heat Index:   Visibility: 10mi
Dew Point: -4°   Wind: 3mph
Humidity: 63%   Direction: NA
Pressure: 30.18"   Gusts: NA
Location:  47.1169°N, 92.8519°W
Report Text: KHIB 280553Z AUTO VRB03KT 10SM BKN090 BKN120 M14/M20 A3018 RMK AO2 SLP258 T11441200 11144 21194 411331267 55016
Loading
Personal Weather Stations






























Interactive Weather Map New forecast layout! Learn more

10-Day Weather Forecast

Advertisements
Track Severe Weather on mobile